createdAt,value
2018-12-03T00:01:00.050Z,95.25
2018-12-03T00:03:31.298Z,95.26
2018-12-03T00:06:02.272Z,95.29
2018-12-03T00:08:33.417Z,95.26
2018-12-03T00:11:04.342Z,95.30
2018-12-03T00:13:35.139Z,95.27
2018-12-03T00:16:06.714Z,95.20
2018-12-03T00:18:37.924Z,95.14
2018-12-03T00:21:08.952Z,95.10
2018-12-03T00:23:39.880Z,94.98
2018-12-03T00:26:10.829Z,94.78
2018-12-03T00:28:41.626Z,94.68
2018-12-03T00:31:12.708Z,94.78
2018-12-03T00:33:43.748Z,94.78
2018-12-03T00:36:15.249Z,94.75
2018-12-03T00:38:46.209Z,94.60
2018-12-03T00:41:18.041Z,94.55
2018-12-03T00:43:49.306Z,94.50
2018-12-03T00:46:25.503Z,94.51
2018-12-03T00:48:58.149Z,94.46
2018-12-03T00:51:29.299Z,94.54
2018-12-03T00:54:00.111Z,94.59
2018-12-03T00:56:31.109Z,94.66
2018-12-03T00:59:02.091Z,94.47
2018-12-03T01:01:37.053Z,94.55
2018-12-03T01:04:08.383Z,94.36
2018-12-03T01:06:39.300Z,94.23
2018-12-03T01:09:11.124Z,94.23
2018-12-03T01:11:42.117Z,94.18
2018-12-03T01:14:13.244Z,94.24
2018-12-03T01:16:44.432Z,94.21
2018-12-03T01:19:15.261Z,93.91
2018-12-03T01:21:46.119Z,93.82
2018-12-03T01:24:17.070Z,93.72
2018-12-03T01:26:48.528Z,93.83
2018-12-03T01:29:19.793Z,93.59
2018-12-03T01:31:50.705Z,93.62
2018-12-03T01:34:21.874Z,93.50
2018-12-03T01:36:53.119Z,93.57
2018-12-03T01:39:23.976Z,93.10
2018-12-03T01:41:55.399Z,93.14
2018-12-03T01:44:26.639Z,93.07
2018-12-03T01:46:57.652Z,93.31
2018-12-03T01:49:29.061Z,92.88
2018-12-03T01:52:00.133Z,92.94
2018-12-03T01:54:31.416Z,92.76
2018-12-03T01:57:02.443Z,92.64
2018-12-03T01:59:33.265Z,93.12
2018-12-03T02:02:04.747Z,93.48
2018-12-03T02:04:35.575Z,93.82
2018-12-03T02:07:06.603Z,94.04
2018-12-03T02:09:37.625Z,94.17
2018-12-03T02:12:09.026Z,94.25
2018-12-03T02:14:39.876Z,94.29
2018-12-03T02:17:10.847Z,94.50
2018-12-03T02:19:41.672Z,94.51
2018-12-03T02:22:12.595Z,94.69
2018-12-03T02:24:44.005Z,94.91
2018-12-03T02:27:15.165Z,94.93
2018-12-03T02:29:46.284Z,94.95
2018-12-03T02:32:17.333Z,94.99
2018-12-03T02:34:48.372Z,94.97
2018-12-03T02:37:19.797Z,94.92
2018-12-03T02:39:50.677Z,94.88
2018-12-03T02:42:22.558Z,94.91
2018-12-03T02:44:53.440Z,94.95
2018-12-03T02:47:24.745Z,94.93
2018-12-03T02:49:56.058Z,94.80
2018-12-03T02:52:27.438Z,94.59
2018-12-03T02:54:58.907Z,94.69
2018-12-03T02:57:30.309Z,94.72
2018-12-03T03:00:01.725Z,94.68
2018-12-03T03:02:32.829Z,94.68
2018-12-03T03:05:04.010Z,94.86
2018-12-03T03:07:35.085Z,94.88
2018-12-03T03:10:14.151Z,94.91
2018-12-03T03:12:45.280Z,94.87
2018-12-03T03:15:17.086Z,94.61
2018-12-03T03:17:47.947Z,94.55
2018-12-03T03:20:19.041Z,94.57
2018-12-03T03:22:50.359Z,94.48
2018-12-03T03:25:21.328Z,94.31
2018-12-03T03:27:52.325Z,94.20
2018-12-03T03:30:23.476Z,93.96
2018-12-03T03:32:54.925Z,93.98
2018-12-03T03:35:26.151Z,93.93
2018-12-03T03:37:57.139Z,93.93
2018-12-03T03:40:28.181Z,94.01
2018-12-03T03:42:59.343Z,93.99
2018-12-03T03:45:30.482Z,94.16
2018-12-03T03:48:01.640Z,93.93
2018-12-03T03:50:33.060Z,93.63
2018-12-03T03:53:04.365Z,93.76
2018-12-03T03:55:35.436Z,93.84
2018-12-03T03:58:06.834Z,93.87
2018-12-03T04:00:37.808Z,93.97
2018-12-03T04:03:08.859Z,94.00
2018-12-03T04:05:40.003Z,94.03
2018-12-03T04:08:11.152Z,94.06
2018-12-03T04:10:42.209Z,94.09
2018-12-03T04:13:13.371Z,94.12
2018-12-03T04:15:44.441Z,93.90
2018-12-03T04:18:15.970Z,93.98
2018-12-03T04:20:47.038Z,94.22
2018-12-03T04:23:18.117Z,94.29
2018-12-03T04:25:49.156Z,94.57
2018-12-03T04:28:20.533Z,94.80
2018-12-03T04:30:51.841Z,94.79
2018-12-03T04:33:23.206Z,94.87
2018-12-03T04:35:54.107Z,94.95
2018-12-03T04:38:25.286Z,94.93
2018-12-03T04:40:56.132Z,94.94
2018-12-03T04:43:27.005Z,95.00
2018-12-03T04:45:58.335Z,95.14
2018-12-03T04:48:29.568Z,95.24
2018-12-03T04:51:00.916Z,95.24
2018-12-03T04:53:32.126Z,95.35
2018-12-03T04:56:03.558Z,95.32
2018-12-03T04:58:34.494Z,95.16
2018-12-03T05:01:05.966Z,94.74
2018-12-03T05:03:37.247Z,94.64
2018-12-03T05:06:08.997Z,94.62
2018-12-03T05:08:40.935Z,94.69
2018-12-03T05:11:11.926Z,94.61
2018-12-03T05:13:43.095Z,94.51
2018-12-03T05:16:14.254Z,93.48
2018-12-03T05:18:45.470Z,94.10
2018-12-03T05:21:17.003Z,94.57
2018-12-03T05:23:48.915Z,94.32
2018-12-03T05:26:20.133Z,94.79
2018-12-03T05:28:51.100Z,94.98
2018-12-03T05:31:22.148Z,94.99
2018-12-03T05:33:53.321Z,95.13
2018-12-03T05:36:25.002Z,95.23
2018-12-03T05:38:56.183Z,95.36
2018-12-03T05:41:27.160Z,95.42
2018-12-03T05:43:58.194Z,95.51
2018-12-03T05:46:29.275Z,95.58
2018-12-03T05:49:00.574Z,95.64
2018-12-03T05:51:31.685Z,95.70
2018-12-03T05:54:02.971Z,95.72
2018-12-03T05:56:34.130Z,95.76
2018-12-03T05:59:05.166Z,95.78
2018-12-03T06:01:36.341Z,95.80
2018-12-03T06:04:07.951Z,95.79
2018-12-03T06:06:38.935Z,95.77
2018-12-03T06:09:11.170Z,95.75
2018-12-03T06:11:42.145Z,95.72
2018-12-03T06:14:13.488Z,95.75
2018-12-03T06:16:44.556Z,95.72
2018-12-03T06:19:15.849Z,95.72
2018-12-03T06:21:48.118Z,95.52
2018-12-03T06:24:19.427Z,95.49
2018-12-03T06:26:50.853Z,95.50
2018-12-03T06:29:21.818Z,95.47
2018-12-03T06:31:53.122Z,95.42
2018-12-03T06:34:24.169Z,95.43
2018-12-03T06:36:55.237Z,95.33
2018-12-03T06:39:26.292Z,95.09
2018-12-03T06:41:57.487Z,95.12
2018-12-03T06:44:28.535Z,95.07
2018-12-03T06:46:59.594Z,95.16
2018-12-03T06:49:30.956Z,95.12
2018-12-03T06:52:01.836Z,95.13
2018-12-03T06:54:32.788Z,95.08
2018-12-03T06:57:03.847Z,94.97
2018-12-03T06:59:35.313Z,94.92
2018-12-03T07:02:07.262Z,94.98
2018-12-03T07:04:38.668Z,94.90
2018-12-03T07:07:09.644Z,94.48
2018-12-03T07:09:40.696Z,94.46
2018-12-03T07:12:11.858Z,94.31
2018-12-03T07:14:42.839Z,94.36
2018-12-03T07:17:13.899Z,94.33
2018-12-03T07:19:45.113Z,94.45
2018-12-03T07:22:16.267Z,94.75
2018-12-03T07:24:47.406Z,94.94
2018-12-03T07:27:19.765Z,94.96
2018-12-03T07:29:52.958Z,95.12
2018-12-03T07:32:22.499Z,94.94
2018-12-03T07:34:53.707Z,95.00
2018-12-03T07:37:24.712Z,94.94
2018-12-03T07:39:55.732Z,94.76
2018-12-03T07:42:26.699Z,94.52
2018-12-03T07:44:57.568Z,94.49
2018-12-03T07:47:28.881Z,94.51
2018-12-03T07:49:59.945Z,94.52
2018-12-03T07:52:31.135Z,94.38
2018-12-03T07:55:02.369Z,94.43
2018-12-03T07:57:33.404Z,94.56
2018-12-03T08:00:04.668Z,94.70
2018-12-03T08:02:35.638Z,94.31
2018-12-03T08:05:07.838Z,94.35
2018-12-03T08:07:39.030Z,94.09
2018-12-03T08:10:18.131Z,93.91
2018-12-03T08:12:50.471Z,93.91
2018-12-03T08:15:22.144Z,93.50
2018-12-03T08:17:59.019Z,93.42
2018-12-03T08:21:00.301Z,93.27
2018-12-03T08:23:49.642Z,93.34
2018-12-03T08:26:20.783Z,93.45
2018-12-03T08:28:51.929Z,93.83
2018-12-03T08:31:23.172Z,93.61
2018-12-03T08:33:54.233Z,93.66
2018-12-03T08:36:25.225Z,93.52
2018-12-03T08:38:57.417Z,93.08
2018-12-03T08:41:28.367Z,92.61
2018-12-03T08:43:59.657Z,92.26
2018-12-03T08:46:30.518Z,92.32
2018-12-03T08:49:01.678Z,93.06
2018-12-03T08:51:32.649Z,93.34
2018-12-03T08:54:03.637Z,93.37
2018-12-03T08:56:34.763Z,93.14
2018-12-03T08:59:06.164Z,92.74
2018-12-03T09:01:37.582Z,92.83
2018-12-03T09:04:27.563Z,93.22
2018-12-03T09:06:58.607Z,93.37
2018-12-03T09:09:29.526Z,92.58
2018-12-03T09:12:00.671Z,92.82
2018-12-03T09:14:36.249Z,92.69
2018-12-03T09:17:09.743Z,92.08
2018-12-03T09:19:40.724Z,92.36
2018-12-03T09:22:11.887Z,92.60
2018-12-03T09:24:43.107Z,92.93
2018-12-03T09:27:18.203Z,93.01
2018-12-03T09:29:49.181Z,93.00
2018-12-03T09:32:20.338Z,92.90
2018-12-03T09:34:51.387Z,93.50
2018-12-03T09:37:24.128Z,93.56
2018-12-03T09:39:55.184Z,93.83
2018-12-03T09:42:34.894Z,93.73
2018-12-03T09:45:17.654Z,93.58
2018-12-03T09:47:49.824Z,93.02
2018-12-03T09:50:28.531Z,93.15
2018-12-03T09:52:59.861Z,92.50
2018-12-03T09:55:32.871Z,92.48
2018-12-03T09:58:20.510Z,92.59
2018-12-03T10:00:51.699Z,93.00
2018-12-03T10:03:32.015Z,93.39
2018-12-03T10:06:10.412Z,93.67
2018-12-03T10:08:41.931Z,93.14
2018-12-03T10:11:13.031Z,93.19
2018-12-03T10:13:44.194Z,93.62
2018-12-03T10:16:15.205Z,94.08
2018-12-03T10:18:50.638Z,93.98
2018-12-03T12:38:16.548Z,91.82
2018-12-03T12:40:45.870Z,92.32
2018-12-03T12:43:15.241Z,91.66
2018-12-03T12:45:53.295Z,91.58
2018-12-03T12:48:22.683Z,91.34
2018-12-03T12:50:52.082Z,91.57
2018-12-03T12:53:21.354Z,91.74
2018-12-03T12:55:50.655Z,91.29
2018-12-03T12:58:19.918Z,90.33
2018-12-03T13:00:49.223Z,90.71
2018-12-03T13:03:18.478Z,91.96
2018-12-03T13:05:47.757Z,91.53
2018-12-03T13:08:17.086Z,91.93
2018-12-03T13:10:46.382Z,91.88
2018-12-03T13:13:15.642Z,92.02
2018-12-03T13:15:45.095Z,92.52
2018-12-03T13:18:14.369Z,92.28
2018-12-03T13:20:43.683Z,91.87
2018-12-03T13:23:19.743Z,90.80
2018-12-03T13:25:49.079Z,91.71
2018-12-03T13:28:18.317Z,91.33
2018-12-03T13:30:47.630Z,90.55
2018-12-03T13:33:17.005Z,89.96
2018-12-03T13:35:46.446Z,90.37
2018-12-03T13:38:15.691Z,89.53
2018-12-03T22:38:39.191Z,94.61
2018-12-03T22:41:08.464Z,94.72
2018-12-03T22:43:37.792Z,94.41
2018-12-03T22:46:07.047Z,94.24
2018-12-03T22:48:36.343Z,94.43
2018-12-03T22:51:05.652Z,94.07
2018-12-03T22:53:34.892Z,94.59
2018-12-03T22:56:04.315Z,94.93
2018-12-03T22:58:33.530Z,94.29
2018-12-03T23:01:07.279Z,94.67
2018-12-03T23:03:36.673Z,94.53
2018-12-03T23:06:06.008Z,94.63
2018-12-03T23:08:35.349Z,94.99
2018-12-03T23:11:04.565Z,94.51
2018-12-03T23:13:33.891Z,94.78
2018-12-03T23:16:03.312Z,95.43
2018-12-03T23:18:32.621Z,94.81
2018-12-03T23:21:02.188Z,95.50
2018-12-03T23:23:31.453Z,94.50
2018-12-03T23:26:00.702Z,94.63
2018-12-03T23:28:29.950Z,94.91
2018-12-03T23:30:59.292Z,95.44
2018-12-03T23:33:28.580Z,95.01
2018-12-03T23:35:57.806Z,94.86
2018-12-03T23:38:27.902Z,95.12
2018-12-03T23:40:57.145Z,95.22
2018-12-03T23:43:26.401Z,95.35
2018-12-03T23:45:55.741Z,95.44
2018-12-03T23:48:25.049Z,95.47
2018-12-03T23:50:54.306Z,95.81
2018-12-03T23:53:23.610Z,95.72
2018-12-03T23:55:52.938Z,95.69
2018-12-03T23:58:22.207Z,95.76
